createdAt,value
2018-12-14T00:00:55.857Z,139.77
2018-12-14T00:03:24.554Z,152.57
2018-12-14T00:05:53.257Z,132.17
2018-12-14T00:08:21.989Z,122.83
2018-12-14T00:10:50.737Z,126.53
2018-12-14T00:13:19.975Z,125.83
2018-12-14T00:15:48.631Z,106.37
2018-12-14T00:18:17.330Z,102.43
2018-12-14T00:20:46.004Z,63.60
2018-12-14T00:23:14.706Z,69.27
2018-12-14T00:25:43.519Z,65.70
2018-12-14T00:28:12.220Z,67.40
2018-12-14T00:30:40.883Z,66.73
2018-12-14T00:33:09.570Z,65.87
2018-12-14T00:35:38.770Z,66.23
2018-12-14T00:38:07.441Z,75.83
2018-12-14T00:40:36.170Z,100.33
2018-12-14T00:43:04.945Z,100.60
2018-12-14T00:45:33.617Z,96.33
2018-12-14T00:48:02.409Z,96.20
2018-12-14T00:50:31.096Z,91.63
2018-12-14T00:52:59.831Z,80.00
2018-12-14T00:55:28.595Z,75.93
2018-12-14T00:57:57.370Z,59.00
2018-12-14T01:00:26.185Z,70.13
2018-12-14T01:02:54.957Z,73.73
2018-12-14T01:05:23.719Z,62.70
2018-12-14T01:07:52.468Z,60.20
2018-12-14T01:10:21.163Z,70.90
2018-12-14T01:12:49.917Z,73.20
2018-12-14T01:15:18.658Z,73.27
2018-12-14T01:17:47.385Z,88.93
2018-12-14T01:20:16.324Z,70.00
2018-12-14T01:22:45.081Z,64.77
2018-12-14T01:25:14.308Z,71.57
2018-12-14T01:27:43.024Z,65.90
2018-12-14T01:30:12.336Z,45.23
2018-12-14T01:32:41.022Z,33.23
2018-12-14T01:35:09.773Z,30.07
2018-12-14T01:37:38.431Z,28.03
2018-12-14T01:40:08.899Z,24.77
2018-12-14T01:42:37.626Z,26.77
2018-12-14T01:45:06.832Z,26.60
2018-12-14T01:47:35.816Z,27.93
2018-12-14T01:50:06.215Z,26.80
2018-12-14T01:52:35.243Z,27.37
2018-12-14T01:55:04.918Z,29.73
2018-12-14T01:57:34.152Z,29.97
2018-12-14T02:00:07.053Z,31.90
2018-12-14T02:02:35.723Z,30.93
2018-12-14T02:05:05.217Z,33.17
2018-12-14T02:07:33.938Z,32.57
2018-12-14T02:10:02.682Z,33.67
2018-12-14T02:12:31.490Z,32.90
2018-12-14T02:15:00.346Z,35.67
2018-12-14T02:17:29.159Z,33.20
2018-12-14T02:19:58.786Z,34.17
2018-12-14T02:22:27.562Z,36.50
2018-12-14T02:24:56.731Z,35.07
2018-12-14T02:27:25.471Z,38.07
2018-12-14T02:29:54.857Z,35.07
2018-12-14T02:32:23.898Z,38.23
2018-12-14T02:34:52.912Z,35.80
2018-12-14T02:37:21.639Z,32.80
2018-12-14T02:39:50.360Z,39.97
2018-12-14T02:42:19.351Z,31.10
2018-12-14T02:44:48.519Z,36.50
2018-12-14T02:47:17.262Z,30.10
2018-12-14T02:49:46.042Z,27.77
2018-12-14T02:52:14.842Z,24.07
2018-12-14T02:54:43.777Z,24.90
2018-12-14T02:57:12.634Z,19.93
2018-12-14T02:59:41.576Z,16.53
2018-12-14T03:02:10.776Z,11.83
2018-12-14T03:04:39.497Z,9.77
2018-12-14T03:07:08.338Z,10.93
2018-12-14T03:09:37.097Z,14.33
2018-12-14T03:12:05.864Z,6.30
2018-12-14T03:14:34.983Z,8.33
2018-12-14T03:17:04.301Z,6.03
2018-12-14T03:19:32.979Z,7.80
2018-12-14T03:22:01.688Z,6.83
2018-12-14T03:24:30.451Z,9.73
2018-12-14T03:26:59.367Z,24.90
2018-12-14T03:29:28.043Z,15.43
2018-12-14T03:31:56.785Z,12.13
2018-12-14T03:34:25.490Z,17.63
2018-12-14T03:36:54.199Z,20.50
2018-12-14T03:39:23.051Z,11.53
2018-12-14T03:41:51.781Z,20.30
2018-12-14T03:44:20.556Z,20.37
2018-12-14T03:46:49.312Z,19.77
2018-12-14T03:49:17.974Z,12.00
2018-12-14T03:51:46.761Z,29.63
2018-12-14T03:54:22.498Z,20.70
2018-12-14T03:56:51.215Z,13.70
2018-12-14T03:59:19.980Z,9.17
2018-12-14T04:01:48.706Z,12.10
2018-12-14T04:04:17.405Z,26.17
2018-12-14T04:06:46.118Z,29.50
2018-12-14T04:09:14.851Z,34.87
2018-12-14T04:11:43.597Z,34.43
2018-12-14T04:14:12.765Z,29.93
2018-12-14T04:16:41.532Z,35.83
2018-12-14T04:19:10.300Z,35.53
2018-12-14T04:21:39.023Z,31.60
2018-12-14T04:24:08.112Z,35.43
2018-12-14T04:26:36.861Z,32.13
2018-12-14T04:29:05.619Z,33.93
2018-12-14T04:31:34.276Z,34.30
2018-12-14T04:34:03.022Z,31.47
2018-12-14T04:36:31.767Z,33.20
2018-12-14T04:39:00.624Z,27.83
2018-12-14T04:41:29.414Z,29.00
2018-12-14T04:43:58.173Z,36.37
2018-12-14T04:46:26.946Z,29.93
2018-12-14T04:48:55.627Z,31.47
2018-12-14T04:51:24.344Z,32.77
2018-12-14T04:53:53.080Z,30.83
2018-12-14T04:56:21.809Z,30.47
2018-12-14T04:58:50.522Z,34.77
2018-12-14T05:01:19.229Z,32.10
2018-12-14T05:03:48.387Z,32.67
2018-12-14T05:06:17.116Z,34.03
2018-12-14T05:08:45.858Z,30.53
2018-12-14T05:11:14.669Z,32.60
2018-12-14T05:13:43.459Z,30.50
2018-12-14T05:16:12.200Z,30.63
2018-12-14T05:18:40.874Z,28.13
2018-12-14T05:21:09.761Z,26.77
2018-12-14T05:23:38.586Z,24.23
2018-12-14T05:26:07.332Z,23.27
2018-12-14T05:28:36.164Z,21.90
2018-12-14T05:31:04.898Z,22.87
2018-12-14T05:33:33.631Z,24.40
2018-12-14T05:36:02.417Z,21.93
2018-12-14T05:38:31.119Z,20.27
2018-12-14T05:40:59.810Z,21.97
2018-12-14T05:43:28.808Z,20.30
2018-12-14T05:45:57.523Z,19.90
2018-12-14T05:48:26.243Z,19.43
2018-12-14T05:50:54.968Z,19.20
2018-12-14T05:53:23.707Z,16.83
2018-12-14T05:55:52.411Z,18.93
2018-12-14T05:58:21.146Z,17.17
2018-12-14T06:00:49.851Z,15.03
2018-12-14T06:03:18.573Z,16.00
2018-12-14T06:05:47.774Z,19.80
2018-12-14T06:08:16.479Z,17.67
2018-12-14T06:10:45.218Z,15.63
2018-12-14T06:13:14.697Z,16.23
2018-12-14T06:15:43.740Z,16.37
2018-12-14T06:18:12.572Z,17.17
2018-12-14T06:20:41.342Z,16.37
2018-12-14T06:23:10.021Z,16.77
2018-12-14T06:25:38.728Z,15.87
2018-12-14T06:28:07.526Z,16.00
2018-12-14T06:30:36.224Z,16.13
2018-12-14T06:33:04.895Z,13.93
2018-12-14T06:35:33.565Z,15.43
2018-12-14T06:38:02.232Z,16.77
2018-12-14T06:40:31.377Z,13.20
2018-12-14T06:43:00.112Z,14.07
2018-12-14T06:45:28.832Z,13.43
2018-12-14T06:47:57.553Z,14.93
2018-12-14T06:50:27.919Z,14.40
2018-12-14T06:52:57.371Z,15.30
2018-12-14T06:55:26.158Z,14.57
2018-12-14T06:57:55.234Z,13.87
2018-12-14T07:00:24.012Z,11.87
2018-12-14T07:02:52.778Z,14.17
2018-12-14T07:05:21.480Z,13.83
2018-12-14T07:07:50.280Z,14.13
2018-12-14T07:10:19.427Z,12.50
2018-12-14T07:12:48.280Z,13.73
2018-12-14T07:15:17.056Z,14.87
2018-12-14T07:17:46.267Z,13.17
2018-12-14T07:20:15.040Z,12.50
2018-12-14T07:22:43.870Z,13.43
2018-12-14T07:25:13.559Z,13.67
2018-12-14T07:27:42.562Z,12.67
2018-12-14T07:30:11.331Z,15.07
2018-12-14T07:32:40.068Z,13.57
2018-12-14T07:35:09.298Z,13.50
2018-12-14T07:37:38.005Z,12.63
2018-12-14T07:40:08.563Z,15.17
2018-12-14T07:42:38.693Z,14.87
2018-12-14T07:45:07.891Z,16.43
2018-12-14T07:47:36.857Z,14.87
2018-12-14T07:50:07.360Z,14.20
2018-12-14T07:52:36.021Z,13.13
2018-12-14T07:55:05.125Z,14.80
2018-12-14T07:57:33.960Z,14.63
2018-12-14T08:00:02.784Z,15.07
2018-12-14T08:02:32.071Z,17.97
2018-12-14T08:05:01.116Z,16.50
2018-12-14T08:07:29.941Z,17.30
2018-12-14T08:09:58.714Z,17.67
2018-12-14T08:12:27.358Z,19.03
2018-12-14T08:14:56.130Z,19.17
2018-12-14T08:17:24.873Z,19.93
2018-12-14T08:19:53.948Z,23.67
2018-12-14T08:22:22.734Z,21.00
2018-12-14T08:24:51.530Z,24.03
2018-12-14T08:27:20.586Z,20.70
2018-12-14T08:29:49.352Z,20.17
2018-12-14T08:32:18.872Z,19.63
2018-12-14T08:34:50.923Z,18.00
2018-12-14T08:37:18.537Z,20.17
2018-12-14T08:39:47.283Z,20.40
2018-12-14T08:42:16.017Z,20.23
2018-12-14T08:44:44.785Z,20.07
2018-12-14T08:47:13.770Z,21.33
2018-12-14T08:49:42.471Z,19.47
2018-12-14T08:52:11.281Z,19.03
2018-12-14T08:54:39.971Z,18.47
2018-12-14T08:57:08.671Z,17.40
2018-12-14T08:59:37.365Z,18.17
2018-12-14T09:02:06.094Z,19.43
2018-12-14T09:04:34.892Z,20.77
2018-12-14T09:07:03.626Z,18.20
2018-12-14T09:09:32.359Z,18.73
2018-12-14T09:12:01.662Z,18.10
2018-12-14T09:14:30.477Z,18.07
2018-12-14T09:16:59.171Z,19.70
2018-12-14T09:19:27.908Z,16.90
2018-12-14T09:21:56.730Z,21.33
2018-12-14T09:24:25.480Z,17.97
2018-12-14T09:26:54.211Z,17.73
2018-12-14T09:29:23.387Z,18.37
2018-12-14T09:31:52.396Z,18.80
2018-12-14T09:34:21.200Z,19.33
2018-12-14T09:36:50.479Z,19.27
2018-12-14T09:39:19.241Z,17.13
2018-12-14T09:41:48.006Z,18.93
2018-12-14T09:44:16.776Z,18.73
2018-12-14T09:46:45.950Z,17.53
2018-12-14T09:49:14.638Z,19.87
2018-12-14T09:51:43.376Z,20.73
2018-12-14T09:54:12.127Z,24.47
2018-12-14T09:56:40.880Z,17.50
2018-12-14T09:59:09.649Z,17.37
2018-12-14T10:01:38.386Z,18.60
2018-12-14T10:04:07.471Z,18.70
2018-12-14T10:06:36.214Z,19.37
2018-12-14T10:09:07.329Z,17.50
2018-12-14T10:11:36.236Z,17.13
2018-12-14T10:14:05.416Z,20.33
2018-12-14T10:16:34.122Z,16.63
2018-12-14T10:19:03.446Z,16.77
2018-12-14T10:21:32.530Z,17.73
2018-12-14T10:24:01.276Z,20.23
2018-12-14T10:26:30.048Z,20.33
2018-12-14T10:28:58.838Z,19.53
2018-12-14T10:31:27.756Z,19.80
2018-12-14T10:33:56.500Z,22.27
2018-12-14T10:36:25.312Z,17.97
2018-12-14T10:38:54.077Z,19.80
2018-12-14T10:41:22.793Z,21.47
2018-12-14T10:43:51.509Z,20.27
2018-12-14T10:46:20.271Z,21.80
2018-12-14T10:48:49.081Z,18.07
2018-12-14T10:51:17.821Z,21.20
2018-12-14T10:53:46.529Z,21.23
2018-12-14T10:56:15.254Z,19.23
2018-12-14T10:58:44.430Z,19.83
2018-12-14T11:01:18.406Z,18.67
2018-12-14T11:03:47.132Z,23.17
2018-12-14T11:06:15.962Z,17.93
2018-12-14T11:08:48.984Z,17.67
2018-12-14T11:11:18.027Z,16.10
2018-12-14T11:13:46.849Z,18.27
2018-12-14T11:16:15.660Z,19.60
2018-12-14T11:18:44.444Z,18.90
2018-12-14T11:21:13.195Z,17.77
2018-12-14T11:23:41.939Z,20.17
2018-12-14T11:26:10.755Z,19.07
2018-12-14T11:28:39.459Z,19.70
2018-12-14T11:31:08.248Z,19.97
2018-12-14T11:33:36.925Z,18.17
2018-12-14T11:36:05.642Z,20.73
2018-12-14T11:38:34.360Z,18.97
2018-12-14T11:41:03.125Z,17.90
2018-12-14T11:43:31.917Z,19.80
2018-12-14T11:46:01.623Z,18.50
2018-12-14T11:48:30.359Z,17.73
2018-12-14T11:50:59.126Z,25.37
2018-12-14T11:53:27.962Z,22.13
2018-12-14T11:55:57.567Z,19.43
2018-12-14T11:58:26.778Z,17.93
2018-12-14T12:00:55.548Z,18.03
2018-12-14T12:03:24.596Z,18.73
2018-12-14T12:05:53.595Z,19.93
2018-12-14T12:08:22.737Z,21.53
2018-12-14T12:10:51.458Z,19.50
2018-12-14T12:13:20.271Z,19.63
2018-12-14T12:15:49.417Z,19.60
2018-12-14T12:18:18.052Z,20.30
2018-12-14T12:20:46.779Z,19.47
2018-12-14T12:23:15.486Z,22.27
2018-12-14T12:25:44.222Z,19.43
2018-12-14T12:28:12.940Z,20.53
2018-12-14T12:30:41.707Z,22.03
2018-12-14T12:33:10.485Z,23.90
2018-12-14T12:35:39.220Z,25.73
2018-12-14T12:38:07.987Z,24.37
2018-12-14T12:40:36.753Z,25.50
2018-12-14T12:43:05.691Z,28.47
2018-12-14T12:45:34.404Z,26.30
2018-12-14T12:48:03.145Z,26.03
2018-12-14T12:50:32.221Z,27.60
2018-12-14T12:53:00.913Z,27.00
2018-12-14T12:55:29.624Z,29.33
2018-12-14T12:57:58.358Z,31.83
2018-12-14T13:00:27.532Z,32.30
2018-12-14T13:02:56.548Z,29.23
2018-12-14T13:05:25.449Z,27.70
2018-12-14T13:07:54.523Z,23.97
2018-12-14T13:10:41.663Z,25.73
2018-12-14T13:13:10.901Z,21.97
2018-12-14T13:15:39.628Z,20.87
2018-12-14T13:18:08.372Z,18.50
2018-12-14T13:20:37.054Z,18.30
2018-12-14T13:23:06.806Z,19.27
2018-12-14T13:25:35.654Z,19.63
2018-12-14T13:28:05.429Z,19.40
2018-12-14T13:30:34.613Z,18.87
2018-12-14T13:33:03.481Z,19.93
2018-12-14T13:35:32.665Z,22.20
2018-12-14T13:38:02.136Z,21.40
2018-12-14T13:40:30.909Z,22.13
2018-12-14T13:42:59.625Z,21.37
2018-12-14T13:45:28.898Z,20.33
2018-12-14T13:47:57.921Z,22.53
2018-12-14T13:50:26.713Z,24.50
2018-12-14T13:52:55.440Z,24.27
2018-12-14T13:55:24.179Z,25.30
2018-12-14T13:57:52.934Z,26.53
2018-12-14T14:00:21.694Z,20.47
2018-12-14T14:02:50.448Z,23.67
2018-12-14T14:05:19.227Z,23.43
2018-12-14T14:07:48.031Z,24.63
2018-12-14T14:10:16.784Z,24.30
2018-12-14T14:12:45.536Z,23.57
2018-12-14T14:15:20.726Z,20.40
2018-12-14T14:17:45.999Z,22.53
2018-12-14T14:20:14.763Z,21.20
2018-12-14T14:22:43.527Z,22.90
2018-12-14T14:25:17.438Z,23.40
2018-12-14T14:27:43.087Z,24.03
2018-12-14T14:30:12.156Z,23.00
2018-12-14T14:35:08.051Z,26.70
2018-12-14T14:37:36.795Z,26.07
2018-12-14T14:40:06.284Z,25.73
2018-12-14T14:42:35.022Z,25.77
2018-12-14T14:45:04.306Z,25.93
2018-12-14T14:47:33.073Z,26.13
2018-12-14T14:50:01.811Z,27.67
2018-12-14T14:52:30.640Z,24.93
2018-12-14T14:54:59.414Z,27.00
2018-12-14T14:57:29.086Z,27.17
2018-12-14T14:59:57.949Z,28.97
2018-12-14T15:02:26.650Z,25.23
2018-12-14T15:04:55.548Z,23.10
2018-12-14T15:07:24.287Z,22.10
2018-12-14T15:09:52.991Z,23.43
2018-12-14T15:12:21.744Z,18.67
2018-12-14T15:14:50.470Z,18.47
2018-12-14T15:17:19.533Z,18.43
2018-12-14T15:19:48.298Z,14.77
2018-12-14T15:22:17.004Z,16.63
2018-12-14T15:24:45.798Z,18.50
2018-12-14T15:27:14.580Z,16.83
2018-12-14T15:29:43.263Z,18.10
2018-12-14T15:32:12.499Z,16.67
2018-12-14T15:34:41.286Z,15.27
2018-12-14T15:37:10.097Z,18.43
2018-12-14T15:39:38.886Z,17.43
2018-12-14T15:42:07.844Z,16.57
2018-12-14T15:44:36.746Z,16.07
2018-12-14T15:47:08.032Z,17.43
2018-12-14T15:49:38.446Z,17.47
2018-12-14T15:52:07.299Z,18.90
2018-12-14T15:54:36.805Z,18.57
2018-12-14T15:57:07.175Z,22.20
2018-12-14T15:59:41.496Z,19.80
2018-12-14T16:02:10.646Z,19.87
2018-12-14T16:04:39.641Z,21.93
2018-12-14T16:07:08.970Z,19.70
2018-12-14T16:09:38.542Z,22.63
2018-12-14T16:12:10.032Z,22.10
2018-12-14T16:14:40.083Z,19.63
2018-12-14T16:17:09.594Z,22.30
2018-12-14T16:19:39.336Z,20.80
2018-12-14T16:22:08.216Z,18.53
2018-12-14T16:24:36.912Z,24.13
2018-12-14T16:27:05.975Z,18.97
2018-12-14T16:29:35.564Z,23.83
2018-12-14T16:32:04.840Z,21.93
2018-12-14T16:34:33.630Z,20.20
2018-12-14T16:37:02.343Z,21.87
2018-12-14T16:39:31.403Z,22.90
2018-12-14T16:42:00.208Z,20.57
2018-12-14T16:44:29.019Z,18.73
2018-12-14T16:46:58.205Z,20.77
2018-12-14T16:49:26.938Z,21.87
2018-12-14T16:51:55.642Z,20.83
2018-12-14T16:54:24.354Z,22.07
2018-12-14T16:56:53.580Z,24.80
2018-12-14T16:59:22.670Z,19.47
2018-12-14T17:01:51.977Z,22.90
2018-12-14T17:04:21.067Z,19.77
2018-12-14T17:06:50.185Z,22.67
2018-12-14T17:09:18.930Z,19.83
2018-12-14T17:11:47.856Z,21.13
2018-12-14T17:14:16.721Z,18.57
2018-12-14T17:16:45.712Z,18.87
2018-12-14T17:19:14.498Z,18.67
2018-12-14T17:21:43.270Z,17.63
2018-12-14T17:24:18.565Z,16.40
2018-12-14T17:26:50.971Z,16.43
2018-12-14T17:29:19.832Z,18.20
2018-12-14T17:31:48.653Z,18.40
2018-12-14T17:34:17.778Z,19.57
2018-12-14T17:36:46.539Z,19.40
2018-12-14T17:39:15.351Z,17.93
2018-12-14T17:41:44.128Z,20.33
2018-12-14T17:44:12.816Z,19.03
2018-12-14T17:46:42.144Z,19.47
2018-12-14T17:49:11.009Z,18.40
2018-12-14T17:51:40.438Z,18.57
2018-12-14T17:54:09.224Z,17.43
2018-12-14T17:56:37.975Z,18.27
2018-12-14T17:59:06.936Z,22.40
2018-12-14T18:01:35.758Z,17.10
2018-12-14T18:04:04.663Z,17.13
2018-12-14T18:06:33.414Z,17.37
2018-12-14T18:09:04.411Z,14.97
2018-12-14T18:11:33.183Z,15.60
2018-12-14T18:14:01.949Z,18.93
2018-12-14T18:16:31.312Z,18.63
2018-12-14T18:19:00.411Z,17.40
2018-12-14T18:21:29.166Z,14.23
2018-12-14T18:23:57.845Z,16.60
2018-12-14T18:26:26.824Z,15.67
2018-12-14T18:28:55.534Z,13.93
2018-12-14T18:31:27.150Z,12.43
2018-12-14T18:33:55.966Z,14.00
2018-12-14T18:36:24.712Z,12.80
2018-12-14T18:38:53.420Z,11.80
2018-12-14T18:41:23.089Z,13.70
2018-12-14T18:43:51.852Z,11.97
2018-12-14T18:46:20.586Z,16.47
2018-12-14T18:48:49.335Z,15.50
2018-12-14T18:51:18.064Z,14.70
2018-12-14T18:53:56.513Z,17.57
2018-12-14T18:56:25.369Z,15.33
2018-12-14T18:58:54.261Z,11.03
2018-12-14T19:01:23.336Z,11.60
2018-12-14T19:03:53.349Z,12.87
2018-12-14T19:06:24.884Z,15.90
2018-12-14T19:08:53.939Z,15.73
2018-12-14T19:11:22.839Z,17.37
2018-12-14T19:13:51.560Z,17.27
2018-12-14T19:16:20.921Z,17.07
2018-12-14T19:18:49.900Z,14.43
2018-12-14T19:21:18.768Z,15.80
2018-12-14T19:23:47.553Z,15.00
2018-12-14T19:26:16.276Z,16.07
2018-12-14T19:28:44.946Z,13.93
2018-12-14T19:31:13.741Z,13.53
2018-12-14T19:33:42.531Z,15.47
2018-12-14T19:36:11.284Z,16.20
2018-12-14T19:38:39.985Z,12.47
2018-12-14T19:41:08.926Z,14.70
2018-12-14T19:43:37.768Z,14.10
2018-12-14T19:46:06.725Z,13.03
2018-12-14T19:48:35.704Z,14.77
2018-12-14T19:51:04.669Z,12.60
2018-12-14T19:53:33.580Z,14.93
2018-12-14T19:56:02.378Z,15.33
2018-12-14T19:58:31.150Z,17.20
2018-12-14T20:00:59.908Z,16.27
2018-12-14T20:03:29.298Z,14.87
2018-12-14T20:05:58.358Z,18.23
2018-12-14T20:08:27.360Z,15.33
2018-12-14T20:10:56.163Z,16.67
2018-12-14T20:13:25.040Z,13.63
2018-12-14T20:16:00.861Z,14.90
2018-12-14T20:18:29.621Z,14.07
2018-12-14T20:20:58.461Z,14.33
2018-12-14T20:23:27.205Z,16.37
2018-12-14T20:25:55.972Z,15.47
2018-12-14T20:28:24.739Z,18.43
2018-12-14T20:30:53.486Z,19.00
2018-12-14T20:33:22.229Z,17.67
2018-12-14T20:35:50.955Z,17.30
2018-12-14T20:38:19.702Z,20.10
2018-12-14T20:40:48.479Z,18.63
2018-12-14T20:43:17.202Z,17.00
2018-12-14T20:45:45.929Z,17.20
2018-12-14T20:48:14.664Z,19.00
2018-12-14T20:50:43.397Z,16.50
2018-12-14T20:53:12.132Z,15.33
2018-12-14T20:55:40.802Z,15.43
2018-12-14T20:58:09.519Z,16.00
2018-12-14T21:00:38.302Z,16.50
2018-12-14T21:03:07.058Z,18.97
2018-12-14T21:05:36.384Z,13.93
2018-12-14T21:08:05.534Z,18.40
2018-12-14T21:10:34.301Z,16.43
2018-12-14T21:13:03.072Z,16.80
2018-12-14T21:15:31.805Z,17.20
2018-12-14T21:18:00.594Z,14.20
2018-12-14T21:20:29.400Z,19.20
2018-12-14T21:22:58.154Z,15.23
2018-12-14T21:25:26.958Z,17.33
2018-12-14T21:27:55.679Z,14.43
2018-12-14T21:30:24.587Z,14.57
2018-12-14T21:32:53.344Z,13.97
2018-12-14T21:35:22.051Z,16.20
2018-12-14T21:37:50.745Z,14.67
2018-12-14T21:40:19.436Z,15.30
2018-12-14T21:42:48.244Z,12.93
2018-12-14T21:45:16.948Z,15.47
2018-12-14T21:47:45.810Z,14.33
2018-12-14T21:50:14.640Z,15.47
2018-12-14T21:52:43.568Z,15.90
2018-12-14T21:55:12.333Z,19.17
2018-12-14T21:57:41.057Z,14.13
2018-12-14T22:00:13.374Z,16.97
2018-12-14T22:02:42.186Z,17.70
2018-12-14T22:05:10.909Z,15.80
2018-12-14T22:07:39.651Z,16.93
2018-12-14T22:10:09.435Z,16.13
2018-12-14T22:12:38.166Z,15.53
2018-12-14T22:15:07.733Z,15.37
2018-12-14T22:17:36.433Z,15.90
2018-12-14T22:20:05.700Z,21.03
2018-12-14T22:22:34.398Z,17.17
2018-12-14T22:25:03.157Z,15.33
2018-12-14T22:27:31.964Z,15.37
2018-12-14T22:30:00.700Z,16.37
2018-12-14T22:32:29.369Z,14.27
2018-12-14T22:34:58.057Z,14.70
2018-12-14T22:37:26.750Z,16.23
2018-12-14T22:39:55.996Z,19.37
2018-12-14T22:42:24.764Z,17.93
2018-12-14T22:45:00.115Z,16.97
2018-12-14T22:47:28.858Z,16.50
2018-12-14T22:49:57.594Z,17.70
2018-12-14T22:52:26.322Z,21.10
2018-12-14T22:54:55.011Z,15.87
2018-12-14T22:57:23.854Z,17.10
2018-12-14T22:59:52.593Z,15.07
2018-12-14T23:02:23.155Z,13.80
2018-12-14T23:04:51.857Z,14.47
2018-12-14T23:07:20.614Z,15.00
2018-12-14T23:09:49.289Z,15.00
2018-12-14T23:12:18.021Z,14.60
2018-12-14T23:14:46.691Z,15.40
2018-12-14T23:17:15.431Z,14.00
2018-12-14T23:19:44.204Z,15.77
2018-12-14T23:22:13.086Z,13.13
2018-12-14T23:24:41.782Z,14.13
2018-12-14T23:27:10.562Z,12.27
2018-12-14T23:29:40.176Z,13.13
2018-12-14T23:32:08.893Z,11.43
2018-12-14T23:34:37.601Z,11.03
2018-12-14T23:37:06.301Z,12.47
2018-12-14T23:39:35.192Z,15.03
2018-12-14T23:42:04.277Z,10.63
2018-12-14T23:44:34.007Z,11.33
2018-12-14T23:47:02.764Z,10.73
2018-12-14T23:49:31.488Z,12.87
2018-12-14T23:52:00.231Z,12.37
2018-12-14T23:54:28.933Z,12.93
2018-12-14T23:56:57.641Z,12.30
2018-12-14T23:59:26.383Z,15.27
